Time;durP1;ratioP1;P1;durP2;ratioP2;P2;SDS_P1;SDS_P2;PMS_P1;PMS_P2;Temp;Humidity;BMP_temperature;BMP_pressure;BME280_temperature;BME280_humidity;BME280_pressure;Samples;Min_cycle;Max_cycle;Signal;HPM_P1;HPM_P2
2021/04/07 00:01:59;;;;;;;2.35;1.63;;;;;;;-139.48;100.00;61774.03;5052050;28;20162;-67
2021/04/07 00:05:03;;;;;;;4.82;1.70;;;;;;;-139.48;100.00;61774.03;5055627;28;20551;-67
2021/04/07 00:07:50;;;;;;;3.38;1.80;;;;;;;-139.48;100.00;61774.03;5055403;28;20433;-66
2021/04/07 00:10:36;;;;;;;2.22;1.65;;;;;;;-139.48;100.00;61774.03;5056587;28;20147;-67
2021/04/07 00:13:21;;;;;;;3.08;1.75;;;;;;;-139.48;100.00;61774.03;5056281;28;20509;-67
2021/04/07 00:16:06;;;;;;;4.22;1.92;;;;;;;-139.48;100.00;61774.03;5041251;28;20048;-67
2021/04/07 00:18:50;;;;;;;3.67;2.25;;;;;;;-139.48;100.00;61774.03;5055461;28;20508;-67
2021/04/07 00:21:35;;;;;;;6.18;2.60;;;;;;;-139.48;100.00;61774.03;5055129;28;20043;-67
2021/04/07 00:24:19;;;;;;;3.55;1.95;;;;;;;-139.48;100.00;61774.03;5056254;28;20474;-67
2021/04/07 00:27:08;;;;;;;3.72;1.88;;;;;;;-139.48;100.00;61774.03;5055980;28;20048;-67
2021/04/07 00:29:52;;;;;;;4.30;2.60;;;;;;;-139.48;100.00;61774.03;5055250;28;20102;-68
2021/04/07 00:32:36;;;;;;;4.10;1.88;;;;;;;-139.48;100.00;61774.03;5055902;28;20051;-67
2021/04/07 00:35:21;;;;;;;4.57;2.00;;;;;;;-139.48;100.00;61774.03;5055045;28;20080;-67
2021/04/07 00:38:05;;;;;;;2.60;1.77;;;;;;;-139.48;100.00;61774.03;5055063;28;20559;-67
2021/04/07 00:40:48;;;;;;;2.28;1.80;;;;;;;-139.48;100.00;61774.03;5054861;28;20063;-67
2021/04/07 00:43:32;;;;;;;8.00;2.20;;;;;;;-139.48;100.00;61774.03;5055913;28;20055;-67
2021/04/07 00:46:16;;;;;;;3.60;1.88;;;;;;;-139.48;100.00;61774.03;5055568;28;20133;-67
2021/04/07 00:49:00;;;;;;;3.75;1.85;;;;;;;-139.48;100.00;61774.03;5056113;28;20044;-67
2021/04/07 00:51:45;;;;;;;5.47;1.80;;;;;;;-139.48;100.00;61774.03;5055548;28;20110;-67
2021/04/07 00:54:28;;;;;;;3.92;1.95;;;;;;;-139.48;100.00;61774.03;5054777;28;20048;-67
2021/04/07 00:57:12;;;;;;;2.28;1.70;;;;;;;-139.48;100.00;61774.03;5054406;28;20055;-67
2021/04/07 00:59:57;;;;;;;4.07;2.30;;;;;;;-139.48;100.00;61774.03;5055617;28;20101;-67
2021/04/07 01:02:41;;;;;;;3.85;1.90;;;;;;;-139.48;100.00;61774.03;5054654;28;20044;-67
2021/04/07 01:05:26;;;;;;;4.30;2.28;;;;;;;-139.48;100.00;61774.03;5055157;28;20461;-66
2021/04/07 01:08:10;;;;;;;6.05;2.53;;;;;;;-139.48;100.00;61774.03;5054241;28;20472;-67
2021/04/07 01:10:53;;;;;;;6.22;2.55;;;;;;;-139.48;100.00;61774.03;5055711;28;20048;-67
2021/04/07 01:13:37;;;;;;;4.88;2.70;;;;;;;-139.48;100.00;61774.03;5053751;28;20053;-67
2021/04/07 01:16:21;;;;;;;5.25;2.78;;;;;;;-139.48;100.00;61774.03;5055008;28;20090;-67
2021/04/07 01:19:09;;;;;;;4.78;2.78;;;;;;;-139.48;100.00;61774.03;5054036;28;20051;-67
2021/04/07 01:21:54;;;;;;;4.75;3.05;;;;;;;-139.48;100.00;61774.03;5054294;28;20055;-66
2021/04/07 01:24:39;;;;;;;4.78;2.75;;;;;;;-139.48;100.00;61774.03;5054826;28;20405;-67
2021/04/07 01:27:23;;;;;;;4.70;3.15;;;;;;;-139.48;100.00;61774.03;5054147;28;20114;-66
2021/04/07 01:30:09;;;;;;;4.97;3.22;;;;;;;-139.48;100.00;61774.03;5054159;28;20095;-66
2021/04/07 01:32:53;;;;;;;5.07;3.45;;;;;;;-139.48;100.00;61774.03;5054206;28;20048;-66
2021/04/07 01:35:37;;;;;;;5.03;3.33;;;;;;;-139.48;100.00;61774.03;5053986;28;20094;-66
2021/04/07 01:38:21;;;;;;;7.25;3.63;;;;;;;-139.48;100.00;61774.03;5054997;28;20048;-67
2021/04/07 01:41:06;;;;;;;7.75;3.38;;;;;;;-139.48;100.00;61774.03;5054605;28;20047;-66
2021/04/07 01:43:50;;;;;;;6.35;3.85;;;;;;;-139.48;100.00;61774.03;5053809;28;20095;-67
2021/04/07 01:46:35;;;;;;;6.25;3.55;;;;;;;-139.48;100.00;61774.03;5053765;28;20057;-66
2021/04/07 01:49:19;;;;;;;6.70;3.83;;;;;;;-139.48;100.00;61774.03;5054470;28;20047;-67
2021/04/07 01:52:03;;;;;;;8.57;3.65;;;;;;;-139.48;100.00;61774.03;5053442;28;20134;-67
2021/04/07 01:54:48;;;;;;;6.55;3.40;;;;;;;-139.48;100.00;61774.03;5053643;28;20086;-66
2021/04/07 01:57:32;;;;;;;7.82;3.65;;;;;;;-139.48;100.00;61774.03;5053638;28;20052;-67
2021/04/07 02:00:16;;;;;;;6.90;3.95;;;;;;;-139.48;100.00;61774.03;5053521;28;20095;-66
2021/04/07 02:03:02;;;;;;;7.25;3.75;;;;;;;-139.48;100.00;61774.03;5053523;28;20099;-67
2021/04/07 02:05:46;;;;;;;6.90;3.90;;;;;;;-139.48;100.00;61774.03;5053010;28;20067;-67
2021/04/07 02:08:30;;;;;;;6.22;3.40;;;;;;;-139.48;100.00;61774.03;5053249;28;20142;-67
2021/04/07 02:11:15;;;;;;;5.70;3.47;;;;;;;-139.48;100.00;61774.03;5054062;28;20052;-66
2021/04/07 02:13:59;;;;;;;8.32;3.63;;;;;;;-139.48;100.00;61774.03;5053289;28;20546;-68
2021/04/07 02:16:53;;;;;;;5.63;3.60;;;;;;;-139.48;100.00;61774.03;5053092;28;20126;-67
2021/04/07 02:19:37;;;;;;;5.53;3.10;;;;;;;-139.48;100.00;61774.03;5053169;28;20048;-66
2021/04/07 02:22:22;;;;;;;3.67;3.00;;;;;;;-139.48;100.00;61774.03;5053842;28;20052;-67
2021/04/07 02:25:07;;;;;;;5.07;3.00;;;;;;;-139.48;100.00;61774.03;5052159;28;20036;-67
2021/04/07 02:27:51;;;;;;;7.03;3.75;;;;;;;-139.48;100.00;61774.03;5038897;28;20048;-67
2021/04/07 02:30:35;;;;;;;5.43;3.17;;;;;;;-139.48;100.00;61774.03;5053225;28;20043;-66
2021/04/07 02:33:20;;;;;;;4.10;3.03;;;;;;;-139.48;100.00;61774.03;5053672;28;20094;-67
2021/04/07 02:36:03;;;;;;;;;;;;;;;-139.48;100.00;61774.03;5052973;28;20043;-66
2021/04/07 02:38:47;;;;;;;6.63;3.60;;;;;;;-139.48;100.00;61774.03;5067005;28;19962;-67
2021/04/07 02:41:32;;;;;;;7.47;2.90;;;;;;;-139.48;100.00;61774.03;5038554;28;20128;-67
2021/04/07 02:44:16;;;;;;;4.03;2.60;;;;;;;-139.48;100.00;61774.03;5052384;28;20405;-67
2021/04/07 02:47:00;;;;;;;5.63;3.35;;;;;;;-139.48;100.00;61774.03;5053656;28;20475;-67
2021/04/07 02:49:45;;;;;;;4.32;2.42;;;;;;;-139.48;100.00;61774.03;5052894;28;20398;-68
2021/04/07 02:52:29;;;;;;;3.85;2.65;;;;;;;-139.48;100.00;61774.03;5052710;28;20048;-67
2021/04/07 02:55:13;;;;;;;5.82;2.65;;;;;;;-139.48;100.00;61774.03;5053206;28;20048;-67
2021/04/07 02:57:57;;;;;;;5.45;2.78;;;;;;;-139.48;100.00;61774.03;5052567;28;20114;-67
2021/04/07 03:00:41;;;;;;;6.35;2.80;;;;;;;-139.48;100.00;61774.03;5053532;28;20064;-67
2021/04/07 03:03:25;;;;;;;5.88;3.05;;;;;;;-139.48;100.00;61774.03;5053495;28;20052;-66
2021/04/07 03:06:09;;;;;;;4.70;2.60;;;;;;;-139.48;100.00;61774.03;5053396;28;20036;-67
2021/04/07 03:08:53;;;;;;;5.93;2.55;;;;;;;-139.48;100.00;61774.03;5052153;28;20064;-67
2021/04/07 03:11:37;;;;;;;7.13;2.78;;;;;;;-139.48;100.00;61774.03;5052634;28;20039;-67
2021/04/07 03:14:21;;;;;;;4.18;2.65;;;;;;;-139.48;100.00;61774.03;5053110;28;20454;-68
2021/04/07 03:17:05;;;;;;;4.90;2.80;;;;;;;-139.48;100.00;61774.03;5053310;28;20059;-67
2021/04/07 03:19:49;;;;;;;3.60;2.60;;;;;;;-139.48;100.00;61774.03;5053311;28;20071;-67
2021/04/07 03:22:33;;;;;;;3.35;2.28;;;;;;;-139.48;100.00;61774.03;5052326;28;20080;-67
2021/04/07 03:25:17;;;;;;;6.30;2.35;;;;;;;-139.48;100.00;61774.03;5052076;28;20047;-68
2021/04/07 03:28:01;;;;;;;4.00;2.25;;;;;;;-139.48;100.00;61774.03;5052263;28;20420;-67
2021/04/07 03:30:49;;;;;;;2.92;2.20;;;;;;;-139.48;100.00;61774.03;5052972;28;20475;-67
2021/04/07 03:33:36;;;;;;;4.00;2.40;;;;;;;-139.48;100.00;61774.03;5053402;28;20136;-67
2021/04/07 03:36:20;;;;;;;3.97;2.05;;;;;;;-139.48;100.00;61774.03;5053047;28;20048;-67
2021/04/07 03:39:04;;;;;;;3.83;2.58;;;;;;;-139.48;100.00;61774.03;5042152;28;20110;-67
2021/04/07 03:41:48;;;;;;;4.88;2.60;;;;;;;-139.48;100.00;61774.03;5056199;28;20099;-66
2021/04/07 03:44:32;;;;;;;7.13;2.55;;;;;;;-139.48;100.00;61774.03;5056071;28;20570;-67
2021/04/07 03:47:16;;;;;;;6.65;2.70;;;;;;;-139.48;100.00;61774.03;5041709;28;20067;-67
2021/04/07 03:50:00;;;;;;;7.18;2.40;;;;;;;-139.48;100.00;61774.03;5055877;28;20429;-66
2021/04/07 03:52:44;;;;;;;5.43;2.40;;;;;;;-139.48;100.00;61774.03;5055734;28;20059;-67
2021/04/07 03:55:28;;;;;;;3.47;2.17;;;;;;;-139.48;100.00;61774.03;5055828;28;20397;-67
2021/04/07 03:58:12;;;;;;;5.20;2.88;;;;;;;-139.48;100.00;61774.03;5056931;28;20114;-68
2021/04/07 04:00:56;;;;;;;4.15;2.40;;;;;;;-139.48;100.00;61774.03;5056526;28;20124;-68
2021/04/07 04:03:40;;;;;;;5.85;2.35;;;;;;;-139.48;100.00;61774.03;5056714;28;20099;-68
2021/04/07 04:06:24;;;;;;;3.65;1.92;;;;;;;-139.48;100.00;61774.03;5055672;28;20051;-67
2021/04/07 04:09:08;;;;;;;4.55;2.50;;;;;;;-139.48;100.00;61774.03;5055590;28;20051;-68
2021/04/07 04:11:52;;;;;;;4.22;2.58;;;;;;;-139.48;100.00;61774.03;5056309;28;20056;-67
2021/04/07 04:14:37;;;;;;;6.75;2.88;;;;;;;-139.48;100.00;61774.03;5055245;28;20075;-68
2021/04/07 04:17:21;;;;;;;5.10;2.60;;;;;;;-139.48;100.00;61774.03;5055514;28;20071;-68
2021/04/07 04:20:05;;;;;;;;;;;;;;;-139.48;100.00;61774.03;5056563;28;20047;-66
2021/04/07 04:22:50;;;;;;;6.88;2.60;;;;;;;-139.48;100.00;61774.03;5055152;28;19918;-68
2021/04/07 04:25:34;;;;;;;6.45;2.40;;;;;;;-139.48;100.00;61774.03;5055198;28;20106;-68
2021/04/07 04:28:18;;;;;;;5.70;2.55;;;;;;;-139.48;100.00;61774.03;5056287;28;20051;-68
2021/04/07 04:31:03;;;;;;;6.32;2.65;;;;;;;-139.48;100.00;61774.03;5054976;28;20133;-68
2021/04/07 04:33:47;;;;;;;4.72;2.33;;;;;;;-139.48;100.00;61774.03;5055219;28;20048;-68
2021/04/07 04:36:31;;;;;;;2.42;2.20;;;;;;;-139.48;100.00;61774.03;5040814;28;20098;-68
2021/04/07 04:39:17;;;;;;;3.92;2.58;;;;;;;-139.48;100.00;61774.03;5056077;28;20047;-68
2021/04/07 04:42:02;;;;;;;4.70;2.58;;;;;;;-139.48;100.00;61774.03;5055056;28;20047;-68
2021/04/07 04:44:46;;;;;;;3.45;2.45;;;;;;;-139.48;100.00;61774.03;5055594;28;20048;-68
2021/04/07 04:47:30;;;;;;;7.45;2.90;;;;;;;-139.48;100.00;61774.03;5055727;28;20056;-67
2021/04/07 04:50:14;;;;;;;6.18;3.25;;;;;;;-139.48;100.00;61774.03;5055075;28;20094;-67
2021/04/07 04:52:58;;;;;;;6.22;2.90;;;;;;;-139.48;100.00;61774.03;5040677;28;20052;-67
2021/04/07 04:55:42;;;;;;;5.35;3.53;;;;;;;-139.48;100.00;61774.03;5054546;28;20079;-66
2021/04/07 04:58:26;;;;;;;6.38;3.05;;;;;;;-139.48;100.00;61774.03;5054758;28;20413;-66
2021/04/07 05:01:10;;;;;;;4.90;3.50;;;;;;;-139.48;100.00;61774.03;5055730;28;20136;-67
2021/04/07 05:03:54;;;;;;;3.63;2.83;;;;;;;-139.48;100.00;61774.03;5055325;28;20048;-66
2021/04/07 05:06:38;;;;;;;;;;;;;;;-139.48;100.00;61774.03;5055718;28;20523;-66
2021/04/07 05:09:22;;;;;;;5.85;3.30;;;;;;;-139.48;100.00;61774.03;5054790;28;19919;-67
2021/04/07 05:12:06;;;;;;;;;;;;;;;-139.48;100.00;61774.03;5055806;28;20047;-66
2021/04/07 05:14:50;;;;;;;8.77;3.17;;;;;;;-139.48;100.00;61774.03;5055463;28;20019;-67
2021/04/07 05:17:35;;;;;;;9.02;3.30;;;;;;;-139.48;100.00;61774.03;5054387;28;20099;-67
2021/04/07 05:20:19;;;;;;;9.13;3.28;;;;;;;-139.48;100.00;61774.03;5054194;28;20063;-67
2021/04/07 05:23:03;;;;;;;6.53;3.70;;;;;;;-139.48;100.00;61774.03;5055233;28;20106;-67
2021/04/07 05:25:47;;;;;;;13.02;4.00;;;;;;;-139.48;100.00;61774.03;5054983;28;20048;-67
2021/04/07 05:28:31;;;;;;;5.80;3.33;;;;;;;-139.48;100.00;61774.03;5054948;28;20091;-67
2021/04/07 05:31:15;;;;;;;5.70;3.38;;;;;;;-139.48;100.00;61774.03;5053835;28;20047;-66
2021/04/07 05:33:59;;;;;;;4.75;3.28;;;;;;;-139.48;100.00;61774.03;5054298;28;20479;-66
2021/04/07 05:36:43;;;;;;;7.32;3.45;;;;;;;-139.48;100.00;61774.03;5053645;28;20484;-67
2021/04/07 05:39:27;;;;;;;;;;;;;;;-139.48;100.00;61774.03;5055357;28;20516;-66
2021/04/07 05:42:11;;;;;;;9.10;3.22;;;;;;;-139.48;100.00;61774.03;5054894;28;19951;-67
2021/04/07 05:44:55;;;;;;;5.65;2.85;;;;;;;-139.48;100.00;61774.03;5053709;28;20048;-67
2021/04/07 05:47:39;;;;;;;3.63;2.65;;;;;;;-139.48;100.00;61774.03;5053713;28;20114;-66
2021/04/07 05:50:24;;;;;;;5.00;2.88;;;;;;;-139.48;100.00;61774.03;5053753;28;20417;-67
2021/04/07 05:53:08;;;;;;;7.57;3.10;;;;;;;-139.48;100.00;61774.03;5054694;28;20569;-67
2021/04/07 05:55:54;;;;;;;11.27;3.10;;;;;;;-139.48;100.00;61774.03;5054455;28;20051;-67
2021/04/07 05:58:38;;;;;;;5.47;3.30;;;;;;;-139.48;100.00;61774.03;5053627;28;20047;-67
2021/04/07 06:01:21;;;;;;;6.05;3.10;;;;;;;-139.48;100.00;61774.03;5053514;28;20071;-67
2021/04/07 06:04:05;;;;;;;5.65;2.58;;;;;;;-139.48;100.00;61774.03;5054338;28;20118;-66
2021/04/07 06:06:49;;;;;;;5.32;3.05;;;;;;;-139.48;100.00;61774.03;5054135;28;20052;-67
2021/04/07 06:09:33;;;;;;;8.73;2.97;;;;;;;-139.48;100.00;61774.03;5053373;28;20047;-67
2021/04/07 06:12:17;;;;;;;3.70;2.60;;;;;;;-139.48;100.00;61774.03;5054028;28;20417;-66
2021/04/07 06:15:03;;;;;;;7.35;2.78;;;;;;;-139.48;100.00;61774.03;5053068;28;20085;-68
2021/04/07 06:17:57;;;;;;;4.88;2.88;;;;;;;-139.48;100.00;61774.03;5054182;28;20422;-66
2021/04/07 06:20:46;;;;;;;7.07;2.05;;;;;;;-139.48;100.00;61774.03;5053309;28;20079;-67
2021/04/07 06:23:30;;;;;;;7.07;2.75;;;;;;;-139.48;100.00;61774.03;5053817;28;20203;-67
2021/04/07 06:26:14;;;;;;;5.80;2.83;;;;;;;-139.48;100.00;61774.03;5053847;28;20040;-67
2021/04/07 06:28:58;;;;;;;7.57;2.78;;;;;;;-139.48;100.00;61774.03;5054270;28;20106;-66
2021/04/07 06:31:41;;;;;;;5.30;2.33;;;;;;;-139.48;100.00;61774.03;5053746;28;20052;-67
2021/04/07 06:34:25;;;;;;;4.70;2.38;;;;;;;-139.48;100.00;61774.03;5053872;28;20051;-67
2021/04/07 06:37:09;;;;;;;8.25;2.97;;;;;;;-139.48;100.00;61774.03;5038729;28;20137;-67
2021/04/07 06:39:53;;;;;;;4.53;2.60;;;;;;;-139.48;100.00;61774.03;5053625;28;20051;-67
2021/04/07 06:42:37;;;;;;;4.55;2.90;;;;;;;-139.48;100.00;61774.03;5052798;28;20098;-67
2021/04/07 06:45:21;;;;;;;4.85;2.03;;;;;;;-139.48;100.00;61774.03;5053531;28;20068;-67
2021/04/07 06:48:12;;;;;;;9.50;2.70;;;;;;;-139.48;100.00;61774.03;5052663;28;20516;-67
2021/04/07 06:50:56;;;;;;;4.85;2.53;;;;;;;-139.48;100.00;61774.03;5053615;28;20136;-67
2021/04/07 06:53:42;;;;;;;5.57;2.33;;;;;;;-139.48;100.00;61774.03;5052306;28;20051;-67
2021/04/07 06:56:26;;;;;;;5.60;3.25;;;;;;;-139.48;100.00;61774.03;5052303;28;20119;-68
2021/04/07 06:59:10;;;;;;;4.43;2.75;;;;;;;-139.48;100.00;61774.03;5052604;28;20075;-68
2021/04/07 07:01:54;;;;;;;6.18;3.03;;;;;;;-139.48;100.00;61774.03;5038460;28;20048;-67
2021/04/07 07:04:39;;;;;;;7.72;2.72;;;;;;;-139.48;100.00;61774.03;5053432;28;20098;-68
2021/04/07 07:07:26;;;;;;;8.38;3.33;;;;;;;-139.48;100.00;61774.03;5052522;28;20524;-67
2021/04/07 07:10:10;;;;;;;4.63;2.97;;;;;;;-139.48;100.00;61774.03;5053446;28;20052;-66
2021/04/07 07:12:55;;;;;;;4.93;2.83;;;;;;;-139.48;100.00;61774.03;5052976;28;20064;-67
2021/04/07 07:15:39;;;;;;;8.98;3.33;;;;;;;-139.48;100.00;61774.03;5053094;28;20127;-68
2021/04/07 07:18:24;;;;;;;3.55;2.28;;;;;;;-139.48;100.00;61774.03;5053378;28;20507;-67
2021/04/07 07:21:15;;;;;;;4.32;2.97;;;;;;;-139.48;100.00;61774.03;5053304;28;20072;-67
2021/04/07 07:23:59;;;;;;;6.43;2.88;;;;;;;-139.48;100.00;61774.03;5052462;28;20094;-67
2021/04/07 07:26:43;;;;;;;4.72;2.65;;;;;;;-139.48;100.00;61774.03;5051963;28;20521;-67
2021/04/07 07:29:37;;;;;;;4.45;3.17;;;;;;;-139.48;100.00;61774.03;5052266;28;20048;-67
2021/04/07 07:32:31;;;;;;;7.05;3.10;;;;;;;-139.48;100.00;61774.03;5052143;28;20124;-67
2021/04/07 07:35:16;;;;;;;5.82;3.10;;;;;;;-139.48;100.00;61774.03;5037997;28;20094;-67
2021/04/07 07:38:00;;;;;;;6.88;3.25;;;;;;;-139.48;100.00;61774.03;5052869;28;20052;-66
2021/04/07 07:40:45;;;;;;;4.88;2.88;;;;;;;-139.48;100.00;61774.03;5053050;28;20116;-66
2021/04/07 07:43:29;;;;;;;5.85;3.25;;;;;;;-139.48;100.00;61774.03;5038050;28;20140;-66
2021/04/07 07:46:22;;;;;;;5.95;3.28;;;;;;;-139.48;100.00;61774.03;5052722;28;20434;-67
2021/04/07 07:49:14;;;;;;;7.53;3.47;;;;;;;-139.48;100.00;61774.03;5037723;28;20516;-67
2021/04/07 07:51:58;;;;;;;8.73;3.97;;;;;;;-139.48;100.00;61774.03;5052729;28;20126;-67
2021/04/07 07:54:42;;;;;;;6.72;3.08;;;;;;;-139.48;100.00;61774.03;5052058;28;20547;-67
2021/04/07 07:57:26;;;;;;;6.38;3.15;;;;;;;-139.48;100.00;61774.03;5052836;28;20520;-67
2021/04/07 08:00:11;;;;;;;9.55;3.75;;;;;;;-139.48;100.00;61774.03;5051944;28;20051;-67
2021/04/07 08:03:12;;;;;;;5.68;3.53;;;;;;;-139.48;100.00;61774.03;5052633;28;20044;-66
2021/04/07 08:06:00;;;;;;;6.28;3.75;;;;;;;-139.48;100.00;61774.03;5052404;28;20079;-67
2021/04/07 08:08:44;;;;;;;10.77;4.07;;;;;;;-139.48;100.00;61774.03;5052769;28;20056;-67
2021/04/07 08:11:28;;;;;;;7.43;3.13;;;;;;;-139.48;100.00;61774.03;5037765;28;20126;-67
2021/04/07 08:14:17;;;;;;;7.60;4.00;;;;;;;-139.48;100.00;61774.03;5051833;28;20094;-67
2021/04/07 08:17:01;;;;;;;6.15;3.90;;;;;;;-139.48;100.00;61774.03;5051309;28;20051;-67
2021/04/07 08:19:45;;;;;;;5.35;3.60;;;;;;;-139.48;100.00;61774.03;5066165;28;20059;-67
2021/04/07 08:22:29;;;;;;;7.63;3.65;;;;;;;-139.48;100.00;61774.03;5051725;28;20114;-67
2021/04/07 08:25:17;;;;;;;6.35;3.83;;;;;;;-139.48;100.00;61774.03;5054822;28;20047;-67
2021/04/07 08:28:03;;;;;;;8.32;2.70;;;;;;;-139.48;100.00;61774.03;5055343;28;20067;-67
2021/04/07 08:30:47;;;;;;;7.75;3.58;;;;;;;-139.48;100.00;61774.03;5056215;28;20098;-67
2021/04/07 08:33:31;;;;;;;6.35;3.20;;;;;;;-139.48;100.00;61774.03;5055301;28;20092;-66
2021/04/07 08:36:19;;;;;;;;;;;;;;;-139.48;100.00;61774.03;5041433;28;20094;-66
2021/04/07 08:39:11;;;;;;;7.90;3.78;;;;;;;-139.48;100.00;61774.03;5054787;28;20389;-67
2021/04/07 08:41:57;;;;;;;7.63;3.80;;;;;;;-139.48;100.00;61774.03;5041103;28;20560;-67
2021/04/07 08:44:45;;;;;;;5.72;3.20;;;;;;;-139.48;100.00;61774.03;5054939;28;20105;-66
2021/04/07 08:47:30;;;;;;;6.90;3.45;;;;;;;-139.48;100.00;61774.03;5054990;28;20056;-67
2021/04/07 08:50:15;;;;;;;7.30;3.75;;;;;;;-139.48;100.00;61774.03;5040659;28;20056;-67
2021/04/07 08:53:10;;;;;;;8.32;3.25;;;;;;;-139.48;100.00;61774.03;5055120;28;20048;-67
2021/04/07 08:55:54;;;;;;;4.47;2.33;;;;;;;-139.48;100.00;61774.03;5054628;28;20039;-68
2021/04/07 08:58:59;;;;;;;7.40;3.60;;;;;;;-139.48;100.00;61774.03;5054700;28;20047;-67
2021/04/07 09:01:43;;;;;;;5.80;2.22;;;;;;;-139.48;100.00;61774.03;5054744;28;20520;-68
2021/04/07 09:04:33;;;;;;;5.97;2.55;;;;;;;-139.48;100.00;61774.03;5054826;28;20043;-68
2021/04/07 09:07:17;;;;;;;10.35;4.05;;;;;;;-139.48;100.00;61774.03;5054575;28;20052;-67
2021/04/07 09:10:20;;;;;;;7.13;3.25;;;;;;;-139.48;100.00;61774.03;5054312;28;20071;-68
2021/04/07 09:13:06;;;;;;;7.88;3.35;;;;;;;-139.48;100.00;61774.03;5040508;28;20047;-67
2021/04/07 09:15:50;;;;;;;8.27;2.58;;;;;;;-139.48;100.00;61774.03;5054044;28;20126;-67
2021/04/07 09:18:38;;;;;;;11.00;4.53;;;;;;;-139.48;100.00;61774.03;5056782;28;20190;-69
2021/04/07 09:21:22;;;;;;;8.13;2.35;;;;;;;-139.48;100.00;61774.03;5040193;28;20056;-69
2021/04/07 09:24:17;;;;;;;9.05;3.10;;;;;;;-139.48;100.00;61774.03;5053883;28;20567;-69
2021/04/07 09:27:01;;;;;;;9.48;2.67;;;;;;;-139.48;100.00;61774.03;5053849;28;20044;-69
2021/04/07 09:29:45;;;;;;;6.00;2.80;;;;;;;-139.48;100.00;61774.03;5055157;28;20052;-69
2021/04/07 09:32:30;;;;;;;8.68;2.72;;;;;;;-139.48;100.00;61774.03;5053811;28;20472;-69
2021/04/07 09:35:14;;;;;;;4.10;2.28;;;;;;;-139.48;100.00;61774.03;5054563;28;20403;-70
2021/04/07 09:37:58;;;;;;;5.57;2.15;;;;;;;-139.48;100.00;61774.03;5054030;28;20052;-69
2021/04/07 09:40:42;;;;;;;4.93;2.17;;;;;;;-139.48;100.00;61774.03;5054819;28;20087;-69
2021/04/07 09:43:26;;;;;;;8.57;3.10;;;;;;;-139.48;100.00;61774.03;5053662;28;20507;-68
2021/04/07 09:46:13;;;;;;;5.90;1.88;;;;;;;-139.48;100.00;61774.03;5053690;28;20044;-69
2021/04/07 09:49:05;;;;;;;3.33;1.35;;;;;;;-139.48;100.00;61774.03;5053652;28;20103;-68
2021/04/07 09:51:50;;;;;;;7.97;1.25;;;;;;;-139.48;100.00;61774.03;5053411;28;20512;-68
2021/04/07 09:54:37;;;;;;;9.07;2.67;;;;;;;-139.48;100.00;61774.03;5053711;28;20155;-69
2021/04/07 09:57:21;;;;;;;7.20;2.08;;;;;;;-139.48;100.00;61774.03;5053396;28;20048;-69
2021/04/07 10:00:08;;;;;;;6.28;2.05;;;;;;;-139.48;100.00;61774.03;5054506;28;20560;-68
2021/04/07 10:02:52;;;;;;;6.22;2.65;;;;;;;-139.48;100.00;61774.03;5039155;28;20071;-68
2021/04/07 10:05:36;;;;;;;5.70;2.85;;;;;;;-139.48;100.00;61774.03;5053365;28;20075;-69
2021/04/07 10:08:23;;;;;;;6.15;2.38;;;;;;;-139.48;100.00;61774.03;5054476;28;20055;-69
2021/04/07 10:11:08;;;;;;;7.32;2.90;;;;;;;-139.48;100.00;61774.03;5039461;28;20051;-69
2021/04/07 10:13:55;;;;;;;6.15;2.15;;;;;;;-139.48;100.00;61774.03;5053408;28;20116;-69
2021/04/07 10:16:40;;;;;;;4.20;1.90;;;;;;;-139.48;100.00;61774.03;5052824;28;20098;-69
2021/04/07 10:19:28;;;;;;;8.90;3.65;;;;;;;-139.48;100.00;61774.03;5054615;28;20513;-69
2021/04/07 10:22:17;;;;;;;6.72;2.70;;;;;;;-139.48;100.00;61774.03;5053172;28;20058;-69
2021/04/07 10:25:22;;;;;;;4.13;2.08;;;;;;;-139.48;100.00;61774.03;5039652;28;20040;-69
2021/04/07 10:28:06;;;;;;;7.25;2.75;;;;;;;-139.48;100.00;61774.03;5053121;28;20048;-69
2021/04/07 10:30:54;;;;;;;4.45;1.67;;;;;;;-139.48;100.00;61774.03;5053844;28;20101;-69
2021/04/07 10:33:38;;;;;;;6.25;2.33;;;;;;;-139.48;100.00;61774.03;5038945;28;20497;-68
2021/04/07 10:36:27;;;;;;;8.80;2.47;;;;;;;-139.48;100.00;61774.03;5052670;28;20063;-69
2021/04/07 10:39:20;;;;;;;8.55;2.60;;;;;;;-139.48;100.00;61774.03;5052922;28;20044;-69
2021/04/07 10:42:17;;;;;;;5.95;2.47;;;;;;;-139.48;100.00;61774.03;5052584;28;20508;-69
2021/04/07 10:45:04;;;;;;;10.90;2.20;;;;;;;-139.48;100.00;61774.03;5052670;28;20040;-69
2021/04/07 10:47:49;;;;;;;6.35;2.22;;;;;;;-139.48;100.00;61774.03;5052223;28;20060;-68
2021/04/07 10:50:37;;;;;;;6.25;2.50;;;;;;;-139.48;100.00;61774.03;5052474;28;20060;-69
2021/04/07 10:53:38;;;;;;;4.93;2.25;;;;;;;-139.48;100.00;61774.03;5038620;28;20051;-69
2021/04/07 10:56:24;;;;;;;9.85;2.40;;;;;;;-139.48;100.00;61774.03;5052309;28;20481;-69
2021/04/07 10:59:12;;;;;;;4.40;1.98;;;;;;;-139.48;100.00;61774.03;5038780;28;20102;-69
2021/04/07 11:02:11;;;;;;;7.68;2.13;;;;;;;-139.48;100.00;61774.03;5053048;28;20412;-69
2021/04/07 11:04:55;;;;;;;6.47;2.38;;;;;;;-139.48;100.00;61774.03;5052351;28;20409;-68
2021/04/07 11:07:40;;;;;;;5.68;2.40;;;;;;;-139.48;100.00;61774.03;5052061;28;20073;-69
2021/04/07 11:10:24;;;;;;;8.07;2.30;;;;;;;-139.48;100.00;61774.03;5052274;28;20048;-69
2021/04/07 11:13:09;;;;;;;6.32;1.98;;;;;;;-139.48;100.00;61774.03;5052379;28;20056;-69
2021/04/07 11:15:53;;;;;;;6.50;2.33;;;;;;;-139.48;100.00;61774.03;5051897;28;20091;-69
2021/04/07 11:18:40;;;;;;;2.75;1.75;;;;;;;-139.48;100.00;61774.03;5052010;28;20083;-69
2021/04/07 11:21:24;;;;;;;5.15;1.90;;;;;;;-139.48;100.00;61774.03;5052279;28;20125;-69
2021/04/07 11:24:09;;;;;;;3.33;1.60;;;;;;;-139.48;100.00;61774.03;5038221;28;20523;-69
2021/04/07 11:26:53;;;;;;;5.93;1.73;;;;;;;-139.48;100.00;61774.03;5052953;28;20052;-69
2021/04/07 11:29:38;;;;;;;2.83;1.67;;;;;;;-139.48;100.00;61774.03;5052198;28;20128;-69
2021/04/07 11:32:22;;;;;;;7.35;2.00;;;;;;;-139.48;100.00;61774.03;5052947;28;20052;-69
2021/04/07 11:37:56;;;;;;;5.25;1.90;;;;;;;-139.48;100.00;61774.03;5052193;28;20056;-69
2021/04/07 11:40:58;;;;;;;6.35;2.30;;;;;;;-139.48;100.00;61774.03;5038445;28;20409;-69
2021/04/07 11:46:44;;;;;;;4.47;1.95;;;;;;;-139.48;100.00;61774.03;5052144;28;20048;-69
2021/04/07 11:49:29;;;;;;;4.90;1.77;;;;;;;-139.48;100.00;61774.03;5053054;28;20464;-69
2021/04/07 11:52:14;;;;;;;2.83;1.90;;;;;;;-139.48;100.00;61774.03;5052270;28;20103;-69
2021/04/07 11:54:58;;;;;;;6.20;2.30;;;;;;;-139.48;100.00;61774.03;5037706;28;20134;-69
2021/04/07 11:57:42;;;;;;;4.90;2.10;;;;;;;-139.48;100.00;61774.03;5053178;28;20512;-68
2021/04/07 12:00:26;;;;;;;5.10;2.40;;;;;;;-139.48;100.00;61774.03;5055841;28;20083;-69
2021/04/07 12:03:10;;;;;;;9.63;2.97;;;;;;;-139.48;100.00;61774.03;5056016;28;20565;-69
2021/04/07 12:05:55;;;;;;;5.53;2.70;;;;;;;-139.48;100.00;61774.03;5041202;28;20527;-68
2021/04/07 12:08:39;;;;;;;7.00;1.98;;;;;;;-139.48;100.00;61774.03;5041778;28;20043;-68
2021/04/07 12:11:24;;;;;;;3.72;2.72;;;;;;;-139.48;100.00;61774.03;5041258;28;20049;-69
2021/04/07 12:14:09;;;;;;;3.13;1.58;;;;;;;-139.48;100.00;61774.03;5055296;28;20052;-68
2021/04/07 12:16:53;;;;;;;5.93;2.50;;;;;;;-139.48;100.00;61774.03;5055028;28;20063;-69
2021/04/07 12:19:39;;;;;;;13.55;3.05;;;;;;;-139.48;100.00;61774.03;5055472;28;20052;-69
2021/04/07 12:22:23;;;;;;;2.63;1.42;;;;;;;-139.48;100.00;61774.03;5055456;28;20533;-69
2021/04/07 12:25:10;;;;;;;6.28;2.33;;;;;;;-139.48;100.00;61774.03;5055297;28;20134;-69
2021/04/07 12:27:54;;;;;;;2.85;1.92;;;;;;;-139.48;100.00;61774.03;5055252;28;20182;-68
2021/04/07 12:30:47;;;;;;;4.50;1.98;;;;;;;-139.48;100.00;61774.03;5055982;28;20052;-68
2021/04/07 12:33:32;;;;;;;4.57;1.50;;;;;;;-139.48;100.00;61774.03;5055952;28;20127;-69
2021/04/07 12:36:16;;;;;;;3.15;1.45;;;;;;;-139.48;100.00;61774.03;5056085;28;20078;-68
2021/04/07 12:39:01;;;;;;;3.58;1.80;;;;;;;-139.48;100.00;61774.03;5040969;28;20501;-68